sensor_id;sensor_type;location;lat;lon;timestamp;P1;durP1;ratioP1;P2;durP2;ratioP2
28309;SDS011;15571;50.974;13.936;2022-07-22T00:01:22;16.02;;;12.45;;
28309;SDS011;15571;50.974;13.936;2022-07-22T00:04:26;17.52;;;12.68;;
28309;SDS011;15571;50.974;13.936;2022-07-22T00:07:32;13.73;;;11.77;;
28309;SDS011;15571;50.974;13.936;2022-07-22T00:10:36;14.32;;;12.70;;
28309;SDS011;15571;50.974;13.936;2022-07-22T00:13:42;17.42;;;12.52;;
28309;SDS011;15571;50.974;13.936;2022-07-22T00:16:46;13.85;;;12.35;;
28309;SDS011;15571;50.974;13.936;2022-07-22T00:19:49;16.88;;;12.25;;
28309;SDS011;15571;50.974;13.936;2022-07-22T00:22:54;14.40;;;12.90;;
28309;SDS011;15571;50.974;13.936;2022-07-22T00:26:00;14.10;;;12.35;;
28309;SDS011;15571;50.974;13.936;2022-07-22T00:29:04;16.58;;;13.52;;
28309;SDS011;15571;50.974;13.936;2022-07-22T00:32:07;17.17;;;12.02;;
28309;SDS011;15571;50.974;13.936;2022-07-22T00:35:11;13.70;;;12.27;;
28309;SDS011;15571;50.974;13.936;2022-07-22T00:38:17;14.73;;;12.93;;
28309;SDS011;15571;50.974;13.936;2022-07-22T00:41:26;18.23;;;13.23;;
28309;SDS011;15571;50.974;13.936;2022-07-22T00:44:29;13.73;;;12.32;;
28309;SDS011;15571;50.974;13.936;2022-07-22T00:47:33;12.73;;;11.43;;
28309;SDS011;15571;50.974;13.936;2022-07-22T00:50:42;13.77;;;12.27;;
28309;SDS011;15571;50.974;13.936;2022-07-22T00:53:47;13.00;;;11.55;;
28309;SDS011;15571;50.974;13.936;2022-07-22T00:56:52;14.02;;;11.93;;
28309;SDS011;15571;50.974;13.936;2022-07-22T00:59:59;13.82;;;11.00;;
28309;SDS011;15571;50.974;13.936;2022-07-22T01:03:02;14.52;;;12.02;;
28309;SDS011;15571;50.974;13.936;2022-07-22T01:06:07;14.68;;;11.60;;
28309;SDS011;15571;50.974;13.936;2022-07-22T01:09:17;14.70;;;12.93;;
28309;SDS011;15571;50.974;13.936;2022-07-22T01:12:20;13.40;;;11.77;;
28309;SDS011;15571;50.974;13.936;2022-07-22T01:15:23;13.35;;;11.95;;
28309;SDS011;15571;50.974;13.936;2022-07-22T01:18:27;17.60;;;12.60;;
28309;SDS011;15571;50.974;13.936;2022-07-22T01:21:32;14.73;;;12.35;;
28309;SDS011;15571;50.974;13.936;2022-07-22T01:24:40;13.77;;;12.20;;
28309;SDS011;15571;50.974;13.936;2022-07-22T01:27:44;17.95;;;13.35;;
28309;SDS011;15571;50.974;13.936;2022-07-22T01:30:48;14.55;;;12.50;;
28309;SDS011;15571;50.974;13.936;2022-07-22T01:33:52;15.02;;;12.05;;
28309;SDS011;15571;50.974;13.936;2022-07-22T01:37:02;15.00;;;12.52;;
28309;SDS011;15571;50.974;13.936;2022-07-22T01:40:05;14.70;;;12.68;;
28309;SDS011;15571;50.974;13.936;2022-07-22T01:43:09;14.23;;;12.80;;
28309;SDS011;15571;50.974;13.936;2022-07-22T01:46:14;14.07;;;12.68;;
28309;SDS011;15571;50.974;13.936;2022-07-22T01:49:34;17.13;;;12.52;;
28309;SDS011;15571;50.974;13.936;2022-07-22T01:52:39;13.73;;;12.32;;
28309;SDS011;15571;50.974;13.936;2022-07-22T01:55:43;12.90;;;11.60;;
28309;SDS011;15571;50.974;13.936;2022-07-22T01:58:49;16.65;;;13.25;;
28309;SDS011;15571;50.974;13.936;2022-07-22T02:02:07;14.05;;;12.38;;
28309;SDS011;15571;50.974;13.936;2022-07-22T02:05:11;15.52;;;12.27;;
28309;SDS011;15571;50.974;13.936;2022-07-22T02:08:16;15.50;;;13.15;;
28309;SDS011;15571;50.974;13.936;2022-07-22T02:11:42;13.95;;;12.45;;
28309;SDS011;15571;50.974;13.936;2022-07-22T02:14:49;13.43;;;12.02;;
28309;SDS011;15571;50.974;13.936;2022-07-22T02:17:52;16.17;;;13.27;;
28309;SDS011;15571;50.974;13.936;2022-07-22T02:20:55;15.02;;;13.18;;
28309;SDS011;15571;50.974;13.936;2022-07-22T02:24:01;15.05;;;13.02;;
28309;SDS011;15571;50.974;13.936;2022-07-22T02:27:04;16.60;;;14.00;;
28309;SDS011;15571;50.974;13.936;2022-07-22T02:30:10;14.65;;;13.07;;
28309;SDS011;15571;50.974;13.936;2022-07-22T02:33:17;18.20;;;13.77;;
28309;SDS011;15571;50.974;13.936;2022-07-22T02:36:23;16.15;;;13.80;;
28309;SDS011;15571;50.974;13.936;2022-07-22T02:39:37;14.18;;;12.25;;
28309;SDS011;15571;50.974;13.936;2022-07-22T02:42:40;18.27;;;13.75;;
28309;SDS011;15571;50.974;13.936;2022-07-22T02:45:43;13.80;;;12.15;;
28309;SDS011;15571;50.974;13.936;2022-07-22T02:48:47;12.57;;;11.05;;
28309;SDS011;15571;50.974;13.936;2022-07-22T02:51:58;14.95;;;12.48;;
28309;SDS011;15571;50.974;13.936;2022-07-22T02:55:07;14.23;;;12.20;;
28309;SDS011;15571;50.974;13.936;2022-07-22T02:58:10;13.95;;;11.82;;
28309;SDS011;15571;50.974;13.936;2022-07-22T03:01:17;14.35;;;12.32;;
28309;SDS011;15571;50.974;13.936;2022-07-22T03:04:28;15.77;;;12.50;;
28309;SDS011;15571;50.974;13.936;2022-07-22T03:07:31;15.00;;;12.82;;
28309;SDS011;15571;50.974;13.936;2022-07-22T03:10:37;13.60;;;11.82;;
28309;SDS011;15571;50.974;13.936;2022-07-22T03:13:41;12.90;;;11.50;;
28309;SDS011;15571;50.974;13.936;2022-07-22T03:16:44;14.60;;;12.05;;
28309;SDS011;15571;50.974;13.936;2022-07-22T03:19:58;15.07;;;12.00;;
28309;SDS011;15571;50.974;13.936;2022-07-22T03:23:04;14.82;;;11.40;;
28309;SDS011;15571;50.974;13.936;2022-07-22T03:26:14;14.23;;;11.52;;
28309;SDS011;15571;50.974;13.936;2022-07-22T03:29:24;15.02;;;11.90;;
28309;SDS011;15571;50.974;13.936;2022-07-22T03:32:28;15.55;;;11.90;;
28309;SDS011;15571;50.974;13.936;2022-07-22T03:35:34;13.55;;;12.15;;
28309;SDS011;15571;50.974;13.936;2022-07-22T03:38:37;13.50;;;11.65;;
28309;SDS011;15571;50.974;13.936;2022-07-22T03:41:45;13.27;;;11.88;;
28309;SDS011;15571;50.974;13.936;2022-07-22T03:44:54;14.43;;;12.32;;
28309;SDS011;15571;50.974;13.936;2022-07-22T03:47:59;15.05;;;12.68;;
28309;SDS011;15571;50.974;13.936;2022-07-22T03:51:08;12.55;;;11.25;;
28309;SDS011;15571;50.974;13.936;2022-07-22T03:54:14;13.48;;;12.07;;
28309;SDS011;15571;50.974;13.936;2022-07-22T03:57:20;13.15;;;11.85;;
28309;SDS011;15571;50.974;13.936;2022-07-22T04:00:42;13.57;;;12.20;;
28309;SDS011;15571;50.974;13.936;2022-07-22T04:03:46;13.82;;;11.57;;
28309;SDS011;15571;50.974;13.936;2022-07-22T04:07:03;14.35;;;11.93;;
28309;SDS011;15571;50.974;13.936;2022-07-22T04:10:10;14.52;;;12.07;;
28309;SDS011;15571;50.974;13.936;2022-07-22T04:13:20;14.07;;;12.50;;
28309;SDS011;15571;50.974;13.936;2022-07-22T04:16:28;13.85;;;11.32;;
28309;SDS011;15571;50.974;13.936;2022-07-22T04:19:40;12.95;;;11.35;;
28309;SDS011;15571;50.974;13.936;2022-07-22T04:22:57;12.82;;;11.25;;
28309;SDS011;15571;50.974;13.936;2022-07-22T04:26:01;12.32;;;10.95;;
28309;SDS011;15571;50.974;13.936;2022-07-22T04:29:08;15.85;;;12.27;;
28309;SDS011;15571;50.974;13.936;2022-07-22T04:32:15;12.23;;;10.93;;
28309;SDS011;15571;50.974;13.936;2022-07-22T04:35:21;12.65;;;11.15;;
28309;SDS011;15571;50.974;13.936;2022-07-22T04:38:40;13.57;;;11.98;;
28309;SDS011;15571;50.974;13.936;2022-07-22T04:41:45;12.73;;;10.73;;
28309;SDS011;15571;50.974;13.936;2022-07-22T04:44:56;20.75;;;11.77;;
28309;SDS011;15571;50.974;13.936;2022-07-22T04:48:00;13.00;;;10.95;;
28309;SDS011;15571;50.974;13.936;2022-07-22T04:51:04;14.93;;;12.40;;
28309;SDS011;15571;50.974;13.936;2022-07-22T04:54:09;11.70;;;10.50;;
28309;SDS011;15571;50.974;13.936;2022-07-22T05:02:23;12.05;;;10.57;;
28309;SDS011;15571;50.974;13.936;2022-07-22T05:05:31;12.52;;;11.15;;
28309;SDS011;15571;50.974;13.936;2022-07-22T05:08:40;12.48;;;11.18;;
28309;SDS011;15571;50.974;13.936;2022-07-22T05:11:44;13.43;;;11.23;;
28309;SDS011;15571;50.974;13.936;2022-07-22T05:14:55;12.50;;;11.10;;
28309;SDS011;15571;50.974;13.936;2022-07-22T05:18:12;12.43;;;11.13;;
28309;SDS011;15571;50.974;13.936;2022-07-22T05:21:16;11.65;;;10.45;;
28309;SDS011;15571;50.974;13.936;2022-07-22T05:24:28;13.70;;;11.95;;
28309;SDS011;15571;50.974;13.936;2022-07-22T05:27:34;16.05;;;11.45;;
28309;SDS011;15571;50.974;13.936;2022-07-22T05:30:36;12.43;;;11.02;;
28309;SDS011;15571;50.974;13.936;2022-07-22T05:33:42;12.30;;;11.07;;
28309;SDS011;15571;50.974;13.936;2022-07-22T05:37:07;12.73;;;11.07;;
28309;SDS011;15571;50.974;13.936;2022-07-22T05:40:12;12.48;;;10.55;;
28309;SDS011;15571;50.974;13.936;2022-07-22T05:43:16;12.73;;;10.45;;
28309;SDS011;15571;50.974;13.936;2022-07-22T05:46:19;12.63;;;9.93;;
28309;SDS011;15571;50.974;13.936;2022-07-22T05:49:24;11.13;;;10.05;;
28309;SDS011;15571;50.974;13.936;2022-07-22T05:52:35;11.23;;;9.77;;
28309;SDS011;15571;50.974;13.936;2022-07-22T05:55:39;9.40;;;8.40;;
28309;SDS011;15571;50.974;13.936;2022-07-22T05:58:50;9.63;;;8.63;;
28309;SDS011;15571;50.974;13.936;2022-07-22T06:01:56;10.70;;;9.38;;
28309;SDS011;15571;50.974;13.936;2022-07-22T06:05:16;9.82;;;8.82;;
28309;SDS011;15571;50.974;13.936;2022-07-22T06:08:27;8.45;;;7.65;;
28309;SDS011;15571;50.974;13.936;2022-07-22T06:11:31;11.85;;;9.07;;
28309;SDS011;15571;50.974;13.936;2022-07-22T06:14:35;13.00;;;9.13;;
28309;SDS011;15571;50.974;13.936;2022-07-22T06:17:39;10.38;;;8.15;;
28309;SDS011;15571;50.974;13.936;2022-07-22T06:20:44;10.35;;;8.20;;
28309;SDS011;15571;50.974;13.936;2022-07-22T06:23:47;9.20;;;8.25;;
28309;SDS011;15571;50.974;13.936;2022-07-22T06:26:54;11.32;;;8.98;;
28309;SDS011;15571;50.974;13.936;2022-07-22T06:29:58;9.02;;;8.00;;
28309;SDS011;15571;50.974;13.936;2022-07-22T06:33:05;8.80;;;7.55;;
28309;SDS011;15571;50.974;13.936;2022-07-22T06:36:18;10.10;;;7.95;;
28309;SDS011;15571;50.974;13.936;2022-07-22T06:39:21;10.20;;;7.53;;
28309;SDS011;15571;50.974;13.936;2022-07-22T06:42:53;9.88;;;7.95;;
28309;SDS011;15571;50.974;13.936;2022-07-22T06:46:01;8.32;;;7.45;;
28309;SDS011;15571;50.974;13.936;2022-07-22T06:49:15;9.43;;;7.50;;
28309;SDS011;15571;50.974;13.936;2022-07-22T06:52:24;12.95;;;7.70;;
28309;SDS011;15571;50.974;13.936;2022-07-22T06:55:28;9.98;;;7.10;;
28309;SDS011;15571;50.974;13.936;2022-07-22T06:58:43;9.30;;;7.63;;
28309;SDS011;15571;50.974;13.936;2022-07-22T07:01:47;10.07;;;7.20;;
28309;SDS011;15571;50.974;13.936;2022-07-22T07:04:53;7.68;;;6.88;;
28309;SDS011;15571;50.974;13.936;2022-07-22T07:07:57;9.02;;;7.35;;
28309;SDS011;15571;50.974;13.936;2022-07-22T07:11:06;10.38;;;7.20;;
28309;SDS011;15571;50.974;13.936;2022-07-22T07:14:10;16.13;;;7.18;;
28309;SDS011;15571;50.974;13.936;2022-07-22T07:17:13;8.82;;;6.72;;
28309;SDS011;15571;50.974;13.936;2022-07-22T07:20:19;8.32;;;7.50;;
28309;SDS011;15571;50.974;13.936;2022-07-22T07:23:28;8.40;;;6.72;;
28309;SDS011;15571;50.974;13.936;2022-07-22T07:26:35;7.95;;;7.25;;
28309;SDS011;15571;50.974;13.936;2022-07-22T07:29:41;8.70;;;6.80;;
28309;SDS011;15571;50.974;13.936;2022-07-22T07:32:48;7.78;;;6.72;;
28309;SDS011;15571;50.974;13.936;2022-07-22T07:35:51;9.80;;;6.43;;
28309;SDS011;15571;50.974;13.936;2022-07-22T07:42:12;8.52;;;6.93;;
28309;SDS011;15571;50.974;13.936;2022-07-22T07:45:16;8.75;;;6.80;;
28309;SDS011;15571;50.974;13.936;2022-07-22T07:48:25;8.80;;;7.03;;
28309;SDS011;15571;50.974;13.936;2022-07-22T07:51:40;8.45;;;7.05;;
28309;SDS011;15571;50.974;13.936;2022-07-22T07:54:44;9.48;;;7.43;;
28309;SDS011;15571;50.974;13.936;2022-07-22T07:57:49;10.02;;;7.20;;
28309;SDS011;15571;50.974;13.936;2022-07-22T08:00:55;6.78;;;6.07;;
28309;SDS011;15571;50.974;13.936;2022-07-22T08:04:02;7.75;;;6.68;;
28309;SDS011;15571;50.974;13.936;2022-07-22T08:07:05;9.90;;;7.28;;
28309;SDS011;15571;50.974;13.936;2022-07-22T08:10:16;12.35;;;7.18;;
28309;SDS011;15571;50.974;13.936;2022-07-22T08:13:46;7.57;;;6.38;;
28309;SDS011;15571;50.974;13.936;2022-07-22T08:17:01;7.85;;;6.40;;
28309;SDS011;15571;50.974;13.936;2022-07-22T08:20:07;7.60;;;6.22;;
28309;SDS011;15571;50.974;13.936;2022-07-22T08:23:11;7.38;;;6.57;;
28309;SDS011;15571;50.974;13.936;2022-07-22T08:26:19;7.97;;;6.57;;
28309;SDS011;15571;50.974;13.936;2022-07-22T08:29:23;7.43;;;6.07;;
28309;SDS011;15571;50.974;13.936;2022-07-22T08:32:27;7.97;;;6.18;;
28309;SDS011;15571;50.974;13.936;2022-07-22T08:35:30;7.90;;;6.50;;
28309;SDS011;15571;50.974;13.936;2022-07-22T08:38:34;8.95;;;7.15;;
28309;SDS011;15571;50.974;13.936;2022-07-22T08:41:40;8.85;;;6.90;;
28309;SDS011;15571;50.974;13.936;2022-07-22T08:44:43;8.43;;;6.90;;
28309;SDS011;15571;50.974;13.936;2022-07-22T08:47:47;8.02;;;7.10;;
28309;SDS011;15571;50.974;13.936;2022-07-22T08:51:00;8.70;;;7.07;;
28309;SDS011;15571;50.974;13.936;2022-07-22T08:54:14;9.82;;;7.03;;
28309;SDS011;15571;50.974;13.936;2022-07-22T08:57:25;9.95;;;7.22;;
28309;SDS011;15571;50.974;13.936;2022-07-22T09:00:28;10.20;;;7.13;;
28309;SDS011;15571;50.974;13.936;2022-07-22T09:03:31;8.23;;;6.90;;
28309;SDS011;15571;50.974;13.936;2022-07-22T09:06:35;7.80;;;7.00;;
28309;SDS011;15571;50.974;13.936;2022-07-22T09:09:42;9.70;;;7.78;;
28309;SDS011;15571;50.974;13.936;2022-07-22T09:13:08;9.55;;;6.63;;
28309;SDS011;15571;50.974;13.936;2022-07-22T09:16:40;8.45;;;7.25;;
28309;SDS011;15571;50.974;13.936;2022-07-22T09:20:02;8.55;;;6.93;;
28309;SDS011;15571;50.974;13.936;2022-07-22T09:23:38;10.75;;;7.60;;
28309;SDS011;15571;50.974;13.936;2022-07-22T09:26:43;9.65;;;7.18;;
28309;SDS011;15571;50.974;13.936;2022-07-22T09:30:11;8.43;;;6.70;;
28309;SDS011;15571;50.974;13.936;2022-07-22T09:33:24;8.60;;;7.80;;
28309;SDS011;15571;50.974;13.936;2022-07-22T09:36:48;8.10;;;7.30;;
28309;SDS011;15571;50.974;13.936;2022-07-22T09:39:58;10.20;;;7.68;;
28309;SDS011;15571;50.974;13.936;2022-07-22T09:43:16;10.60;;;7.75;;
28309;SDS011;15571;50.974;13.936;2022-07-22T09:46:36;8.30;;;7.50;;
28309;SDS011;15571;50.974;13.936;2022-07-22T09:49:54;8.98;;;7.70;;
28309;SDS011;15571;50.974;13.936;2022-07-22T09:53:19;10.02;;;7.57;;
28309;SDS011;15571;50.974;13.936;2022-07-22T09:56:34;9.50;;;7.40;;
28309;SDS011;15571;50.974;13.936;2022-07-22T09:59:40;8.55;;;7.60;;
28309;SDS011;15571;50.974;13.936;2022-07-22T10:03:18;8.60;;;7.78;;
28309;SDS011;15571;50.974;13.936;2022-07-22T10:06:28;8.25;;;7.45;;
28309;SDS011;15571;50.974;13.936;2022-07-22T10:09:32;10.20;;;7.85;;
28309;SDS011;15571;50.974;13.936;2022-07-22T10:12:37;8.43;;;7.63;;
28309;SDS011;15571;50.974;13.936;2022-07-22T10:15:41;9.48;;;7.88;;
28309;SDS011;15571;50.974;13.936;2022-07-22T10:18:46;10.85;;;7.55;;
28309;SDS011;15571;50.974;13.936;2022-07-22T10:21:54;8.40;;;7.60;;
28309;SDS011;15571;50.974;13.936;2022-07-22T10:25:01;8.75;;;7.25;;
28309;SDS011;15571;50.974;13.936;2022-07-22T10:28:05;9.90;;;7.65;;
28309;SDS011;15571;50.974;13.936;2022-07-22T10:31:18;9.75;;;7.63;;
28309;SDS011;15571;50.974;13.936;2022-07-22T10:34:27;10.27;;;7.82;;
28309;SDS011;15571;50.974;13.936;2022-07-22T10:37:37;9.68;;;7.63;;
28309;SDS011;15571;50.974;13.936;2022-07-22T10:40:47;10.90;;;8.43;;
28309;SDS011;15571;50.974;13.936;2022-07-22T10:43:53;7.90;;;7.07;;
28309;SDS011;15571;50.974;13.936;2022-07-22T10:46:56;12.27;;;7.32;;
28309;SDS011;15571;50.974;13.936;2022-07-22T10:53:43;8.13;;;7.20;;
28309;SDS011;15571;50.974;13.936;2022-07-22T10:56:49;10.32;;;7.72;;
28309;SDS011;15571;50.974;13.936;2022-07-22T10:59:57;9.30;;;7.93;;
28309;SDS011;15571;50.974;13.936;2022-07-22T11:03:03;9.73;;;7.72;;
28309;SDS011;15571;50.974;13.936;2022-07-22T11:06:13;9.48;;;6.80;;
28309;SDS011;15571;50.974;13.936;2022-07-22T11:09:23;10.23;;;7.60;;
28309;SDS011;15571;50.974;13.936;2022-07-22T11:12:34;9.20;;;7.47;;
28309;SDS011;15571;50.974;13.936;2022-07-22T11:15:40;8.85;;;7.35;;
28309;SDS011;15571;50.974;13.936;2022-07-22T11:18:46;7.93;;;6.57;;
28309;SDS011;15571;50.974;13.936;2022-07-22T11:21:53;11.07;;;7.93;;
28309;SDS011;15571;50.974;13.936;2022-07-22T11:25:01;11.25;;;7.38;;
28309;SDS011;15571;50.974;13.936;2022-07-22T11:28:07;10.32;;;7.60;;
28309;SDS011;15571;50.974;13.936;2022-07-22T11:31:13;8.38;;;7.53;;
28309;SDS011;15571;50.974;13.936;2022-07-22T11:34:18;9.50;;;7.32;;
28309;SDS011;15571;50.974;13.936;2022-07-22T11:37:25;10.55;;;7.20;;
28309;SDS011;15571;50.974;13.936;2022-07-22T11:40:34;7.53;;;6.68;;
28309;SDS011;15571;50.974;13.936;2022-07-22T11:43:40;7.93;;;6.65;;
28309;SDS011;15571;50.974;13.936;2022-07-22T11:46:44;11.15;;;7.15;;
28309;SDS011;15571;50.974;13.936;2022-07-22T11:49:48;10.95;;;7.95;;
28309;SDS011;15571;50.974;13.936;2022-07-22T11:52:53;8.88;;;7.20;;
28309;SDS011;15571;50.974;13.936;2022-07-22T11:55:58;7.20;;;6.50;;
28309;SDS011;15571;50.974;13.936;2022-07-22T11:59:29;7.93;;;7.13;;
28309;SDS011;15571;50.974;13.936;2022-07-22T12:03:01;7.93;;;7.20;;
28309;SDS011;15571;50.974;13.936;2022-07-22T12:06:23;9.60;;;7.28;;
28309;SDS011;15571;50.974;13.936;2022-07-22T12:09:29;8.27;;;6.97;;
28309;SDS011;15571;50.974;13.936;2022-07-22T12:12:41;9.80;;;7.15;;
28309;SDS011;15571;50.974;13.936;2022-07-22T12:15:49;8.88;;;7.30;;
28309;SDS011;15571;50.974;13.936;2022-07-22T12:18:53;9.90;;;7.10;;
28309;SDS011;15571;50.974;13.936;2022-07-22T12:22:00;7.50;;;6.75;;
28309;SDS011;15571;50.974;13.936;2022-07-22T12:25:08;10.77;;;7.07;;
28309;SDS011;15571;50.974;13.936;2022-07-22T12:28:16;8.40;;;6.65;;
28309;SDS011;15571;50.974;13.936;2022-07-22T12:31:20;7.05;;;6.18;;
28309;SDS011;15571;50.974;13.936;2022-07-22T12:34:33;8.10;;;7.25;;
28309;SDS011;15571;50.974;13.936;2022-07-22T12:37:41;10.45;;;7.70;;
28309;SDS011;15571;50.974;13.936;2022-07-22T12:40:45;7.63;;;6.93;;
28309;SDS011;15571;50.974;13.936;2022-07-22T12:43:52;8.48;;;6.80;;
28309;SDS011;15571;50.974;13.936;2022-07-22T12:46:56;8.40;;;6.88;;
28309;SDS011;15571;50.974;13.936;2022-07-22T12:50:14;8.73;;;6.88;;
28309;SDS011;15571;50.974;13.936;2022-07-22T12:53:18;7.20;;;5.90;;
28309;SDS011;15571;50.974;13.936;2022-07-22T12:56:21;12.43;;;6.97;;
28309;SDS011;15571;50.974;13.936;2022-07-22T12:59:29;7.88;;;6.65;;
28309;SDS011;15571;50.974;13.936;2022-07-22T13:02:32;6.65;;;6.05;;
28309;SDS011;15571;50.974;13.936;2022-07-22T13:05:35;8.43;;;6.72;;
28309;SDS011;15571;50.974;13.936;2022-07-22T13:08:42;7.05;;;5.80;;
28309;SDS011;15571;50.974;13.936;2022-07-22T13:11:54;8.43;;;6.35;;
28309;SDS011;15571;50.974;13.936;2022-07-22T13:14:59;8.18;;;5.60;;
28309;SDS011;15571;50.974;13.936;2022-07-22T13:18:03;8.82;;;6.28;;
28309;SDS011;15571;50.974;13.936;2022-07-22T13:21:06;11.23;;;6.15;;
28309;SDS011;15571;50.974;13.936;2022-07-22T13:24:13;9.40;;;5.85;;
28309;SDS011;15571;50.974;13.936;2022-07-22T13:27:20;9.25;;;5.78;;
28309;SDS011;15571;50.974;13.936;2022-07-22T13:30:24;6.45;;;5.65;;
28309;SDS011;15571;50.974;13.936;2022-07-22T13:33:27;7.20;;;5.50;;
28309;SDS011;15571;50.974;13.936;2022-07-22T13:36:34;5.57;;;5.03;;
28309;SDS011;15571;50.974;13.936;2022-07-22T13:39:38;10.73;;;6.15;;
28309;SDS011;15571;50.974;13.936;2022-07-22T13:42:43;10.18;;;5.32;;
28309;SDS011;15571;50.974;13.936;2022-07-22T13:45:48;6.88;;;5.57;;
28309;SDS011;15571;50.974;13.936;2022-07-22T13:48:59;5.65;;;5.15;;
28309;SDS011;15571;50.974;13.936;2022-07-22T13:52:03;8.32;;;5.88;;
28309;SDS011;15571;50.974;13.936;2022-07-22T13:55:07;6.63;;;5.30;;
28309;SDS011;15571;50.974;13.936;2022-07-22T13:58:15;5.97;;;5.43;;
28309;SDS011;15571;50.974;13.936;2022-07-22T14:01:22;5.90;;;5.30;;
28309;SDS011;15571;50.974;13.936;2022-07-22T14:04:26;4.97;;;4.57;;
28309;SDS011;15571;50.974;13.936;2022-07-22T14:07:30;5.25;;;4.75;;
28309;SDS011;15571;50.974;13.936;2022-07-22T14:10:33;6.18;;;5.03;;
28309;SDS011;15571;50.974;13.936;2022-07-22T14:13:36;7.38;;;4.72;;
28309;SDS011;15571;50.974;13.936;2022-07-22T14:16:48;6.72;;;5.25;;
28309;SDS011;15571;50.974;13.936;2022-07-22T14:19:54;5.00;;;4.55;;
28309;SDS011;15571;50.974;13.936;2022-07-22T14:22:57;4.93;;;4.47;;
28309;SDS011;15571;50.974;13.936;2022-07-22T14:26:00;6.22;;;5.10;;
28309;SDS011;15571;50.974;13.936;2022-07-22T14:29:03;6.38;;;4.93;;
28309;SDS011;15571;50.974;13.936;2022-07-22T14:32:09;8.23;;;5.28;;
28309;SDS011;15571;50.974;13.936;2022-07-22T14:35:12;4.65;;;4.25;;
28309;SDS011;15571;50.974;13.936;2022-07-22T14:38:16;5.93;;;5.10;;
28309;SDS011;15571;50.974;13.936;2022-07-22T14:41:21;5.40;;;4.90;;
28309;SDS011;15571;50.974;13.936;2022-07-22T14:44:25;5.25;;;4.47;;
28309;SDS011;15571;50.974;13.936;2022-07-22T14:47:33;5.30;;;4.63;;
28309;SDS011;15571;50.974;13.936;2022-07-22T14:50:36;4.72;;;4.32;;
28309;SDS011;15571;50.974;13.936;2022-07-22T14:53:43;6.97;;;4.65;;
28309;SDS011;15571;50.974;13.936;2022-07-22T14:56:46;5.25;;;4.72;;
28309;SDS011;15571;50.974;13.936;2022-07-22T14:59:55;6.22;;;5.30;;
28309;SDS011;15571;50.974;13.936;2022-07-22T15:03:00;6.18;;;4.63;;
28309;SDS011;15571;50.974;13.936;2022-07-22T15:06:04;4.82;;;4.32;;
28309;SDS011;15571;50.974;13.936;2022-07-22T15:09:07;6.00;;;4.95;;
28309;SDS011;15571;50.974;13.936;2022-07-22T15:12:11;5.35;;;4.85;;
28309;SDS011;15571;50.974;13.936;2022-07-22T15:15:14;4.80;;;4.40;;
28309;SDS011;15571;50.974;13.936;2022-07-22T15:18:21;5.43;;;4.63;;
28309;SDS011;15571;50.974;13.936;2022-07-22T15:21:25;5.13;;;4.72;;
28309;SDS011;15571;50.974;13.936;2022-07-22T15:24:28;4.68;;;4.25;;
28309;SDS011;15571;50.974;13.936;2022-07-22T15:27:35;6.40;;;4.72;;
28309;SDS011;15571;50.974;13.936;2022-07-22T15:30:38;6.13;;;5.28;;
28309;SDS011;15571;50.974;13.936;2022-07-22T15:33:52;5.78;;;4.05;;
28309;SDS011;15571;50.974;13.936;2022-07-22T15:37:04;5.00;;;4.45;;
28309;SDS011;15571;50.974;13.936;2022-07-22T15:40:07;4.88;;;3.92;;
28309;SDS011;15571;50.974;13.936;2022-07-22T15:43:12;7.80;;;4.43;;
28309;SDS011;15571;50.974;13.936;2022-07-22T15:46:15;4.65;;;3.80;;
28309;SDS011;15571;50.974;13.936;2022-07-22T15:49:20;5.75;;;4.53;;
28309;SDS011;15571;50.974;13.936;2022-07-22T15:52:28;4.40;;;4.00;;
28309;SDS011;15571;50.974;13.936;2022-07-22T15:55:34;5.82;;;4.85;;
28309;SDS011;15571;50.974;13.936;2022-07-22T15:58:45;5.38;;;4.60;;
28309;SDS011;15571;50.974;13.936;2022-07-22T16:02:08;6.97;;;4.80;;
28309;SDS011;15571;50.974;13.936;2022-07-22T16:05:13;6.18;;;4.38;;
28309;SDS011;15571;50.974;13.936;2022-07-22T16:08:15;4.95;;;4.45;;
28309;SDS011;15571;50.974;13.936;2022-07-22T16:11:19;4.32;;;3.92;;
28309;SDS011;15571;50.974;13.936;2022-07-22T16:14:22;8.60;;;4.57;;
28309;SDS011;15571;50.974;13.936;2022-07-22T16:17:32;6.47;;;5.07;;
28309;SDS011;15571;50.974;13.936;2022-07-22T16:20:36;5.25;;;4.75;;
28309;SDS011;15571;50.974;13.936;2022-07-22T16:23:39;5.80;;;4.45;;
28309;SDS011;15571;50.974;13.936;2022-07-22T16:26:42;5.90;;;4.70;;
28309;SDS011;15571;50.974;13.936;2022-07-22T16:29:46;4.40;;;4.00;;
28309;SDS011;15571;50.974;13.936;2022-07-22T16:32:50;4.95;;;4.43;;
28309;SDS011;15571;50.974;13.936;2022-07-22T16:36:03;6.88;;;4.60;;
28309;SDS011;15571;50.974;13.936;2022-07-22T16:39:07;4.90;;;4.40;;
28309;SDS011;15571;50.974;13.936;2022-07-22T16:42:11;5.03;;;4.63;;
28309;SDS011;15571;50.974;13.936;2022-07-22T16:45:14;5.53;;;4.75;;
28309;SDS011;15571;50.974;13.936;2022-07-22T16:48:20;6.10;;;4.32;;
28309;SDS011;15571;50.974;13.936;2022-07-22T16:51:25;5.13;;;4.28;;
28309;SDS011;15571;50.974;13.936;2022-07-22T16:54:28;5.07;;;4.40;;
28309;SDS011;15571;50.974;13.936;2022-07-22T16:57:31;5.97;;;4.43;;
28309;SDS011;15571;50.974;13.936;2022-07-22T17:00:34;7.00;;;4.03;;
28309;SDS011;15571;50.974;13.936;2022-07-22T17:03:37;4.35;;;3.95;;
28309;SDS011;15571;50.974;13.936;2022-07-22T17:06:42;4.22;;;3.83;;
28309;SDS011;15571;50.974;13.936;2022-07-22T17:09:45;4.18;;;3.58;;
28309;SDS011;15571;50.974;13.936;2022-07-22T17:12:49;4.78;;;3.70;;
28309;SDS011;15571;50.974;13.936;2022-07-22T17:15:53;4.18;;;3.70;;
28309;SDS011;15571;50.974;13.936;2022-07-22T17:18:56;5.68;;;3.92;;
28309;SDS011;15571;50.974;13.936;2022-07-22T17:22:04;5.55;;;3.17;;
28309;SDS011;15571;50.974;13.936;2022-07-22T17:25:07;4.68;;;3.45;;
28309;SDS011;15571;50.974;13.936;2022-07-22T17:28:11;4.93;;;4.43;;
28309;SDS011;15571;50.974;13.936;2022-07-22T17:31:14;5.32;;;3.55;;
28309;SDS011;15571;50.974;13.936;2022-07-22T17:34:17;3.83;;;3.42;;
28309;SDS011;15571;50.974;13.936;2022-07-22T17:37:22;9.57;;;3.92;;
28309;SDS011;15571;50.974;13.936;2022-07-22T17:40:26;3.83;;;3.53;;
28309;SDS011;15571;50.974;13.936;2022-07-22T17:43:29;5.40;;;4.15;;
28309;SDS011;15571;50.974;13.936;2022-07-22T17:46:36;4.72;;;3.30;;
28309;SDS011;15571;50.974;13.936;2022-07-22T17:49:40;3.90;;;3.47;;
28309;SDS011;15571;50.974;13.936;2022-07-22T17:52:44;4.55;;;4.15;;
28309;SDS011;15571;50.974;13.936;2022-07-22T17:55:47;6.07;;;3.40;;
28309;SDS011;15571;50.974;13.936;2022-07-22T17:58:53;4.30;;;3.90;;
28309;SDS011;15571;50.974;13.936;2022-07-22T18:01:56;4.25;;;3.50;;
28309;SDS011;15571;50.974;13.936;2022-07-22T18:05:00;3.97;;;3.67;;
28309;SDS011;15571;50.974;13.936;2022-07-22T18:08:08;5.43;;;3.58;;
28309;SDS011;15571;50.974;13.936;2022-07-22T18:11:12;4.45;;;3.60;;
28309;SDS011;15571;50.974;13.936;2022-07-22T18:14:15;3.97;;;3.45;;
28309;SDS011;15571;50.974;13.936;2022-07-22T18:17:23;4.43;;;3.30;;
28309;SDS011;15571;50.974;13.936;2022-07-22T18:20:29;4.55;;;3.38;;
28309;SDS011;15571;50.974;13.936;2022-07-22T18:23:35;3.70;;;3.40;;
28309;SDS011;15571;50.974;13.936;2022-07-22T18:26:42;3.78;;;3.47;;
28309;SDS011;15571;50.974;13.936;2022-07-22T18:29:48;4.50;;;4.10;;
28309;SDS011;15571;50.974;13.936;2022-07-22T18:32:54;5.40;;;3.53;;